Ansley, Louisiana
Current Conditions -  °F | °C
As of 1:35 AM on Saturday 25 Oct 2014 (Local Time) from KRSN Reporting Station
Clear Clear  
Wind Chill: 50°   Ceiling: Unl
Heat Index: 50°   Visibility: 7mi
Dew Point: 50°   Wind: 0mph
Humidity: 100%   Direction: NA
Pressure: 30.16"   Gusts: NA
Location:  32.5075°N, 92.6828°W
Report Text: KRSN 250635Z AUTO 00000KT 7SM CLR 10/10 A3016 RMK AO2 T00990099
Loading
Personal Weather Stations






























Interactive Weather Map New forecast layout! Learn more

10-Day Weather Forecast

Advertisements
Track Severe Weather on mobile